createdAt,value
2022-09-27T00:01:36.508Z,12.00
2022-09-27T00:04:12.447Z,12.00
2022-09-27T00:06:45.754Z,12.00
2022-09-27T00:09:19.225Z,12.00
2022-09-27T00:11:52.612Z,12.00
2022-09-27T00:14:26.160Z,12.00
2022-09-27T00:17:00.872Z,12.00
2022-09-27T00:19:34.345Z,12.00
2022-09-27T00:22:07.643Z,12.00
2022-09-27T00:24:41.135Z,12.00
2022-09-27T00:27:14.437Z,12.00
2022-09-27T00:29:48.350Z,12.00
2022-09-27T00:32:23.241Z,12.00
2022-09-27T00:34:56.899Z,12.00
2022-09-27T00:37:30.228Z,12.00
2022-09-27T00:40:03.758Z,11.90
2022-09-27T00:42:37.633Z,12.00
2022-09-27T00:45:14.636Z,12.00
2022-09-27T00:47:51.411Z,11.90
2022-09-27T00:50:27.670Z,11.90
2022-09-27T00:53:05.565Z,11.90
2022-09-27T00:55:41.183Z,11.90
2022-09-27T00:58:16.522Z,11.90
2022-09-27T01:00:52.252Z,11.90
2022-09-27T01:03:31.814Z,11.90
2022-09-27T01:06:06.917Z,11.90
2022-09-27T01:08:40.570Z,11.90
2022-09-27T01:11:22.447Z,11.90
2022-09-27T01:14:04.344Z,11.90
2022-09-27T01:16:41.727Z,11.90
2022-09-27T01:19:23.265Z,11.90
2022-09-27T01:22:00.453Z,11.90
2022-09-27T01:24:50.469Z,11.90
2022-09-27T01:27:44.062Z,11.90
2022-09-27T01:30:21.297Z,11.90
2022-09-27T01:33:09.209Z,11.90
2022-09-27T01:35:50.398Z,11.90
2022-09-27T01:38:26.056Z,11.90
2022-09-27T01:41:04.557Z,11.90
2022-09-27T01:44:15.236Z,11.90
2022-09-27T01:46:56.613Z,11.90
2022-09-27T01:49:44.573Z,11.90
2022-09-27T01:52:20.233Z,11.90
2022-09-27T01:54:55.994Z,11.90
2022-09-27T01:57:33.593Z,11.90
2022-09-27T02:00:08.787Z,11.90
2022-09-27T02:02:51.999Z,11.90
2022-09-27T02:05:33.203Z,11.90
2022-09-27T02:08:17.805Z,11.90
2022-09-27T02:10:53.840Z,11.90
2022-09-27T02:13:29.477Z,11.90
2022-09-27T02:16:19.663Z,11.90
2022-09-27T02:19:00.936Z,11.90
2022-09-27T02:21:43.973Z,11.90
2022-09-27T02:24:20.960Z,11.80
2022-09-27T02:27:00.722Z,11.80
2022-09-27T02:29:38.630Z,11.80
2022-09-27T02:32:12.538Z,11.80
2022-09-27T02:34:48.285Z,11.70
2022-09-27T02:37:21.688Z,11.70
2022-09-27T02:39:55.325Z,11.70
2022-09-27T02:42:29.347Z,11.70
2022-09-27T02:45:03.398Z,11.70
2022-09-27T02:47:45.035Z,11.70
2022-09-27T02:50:33.444Z,11.70
2022-09-27T02:53:36.367Z,11.60
2022-09-27T02:56:24.055Z,11.60
2022-09-27T02:59:29.843Z,11.60
2022-09-27T03:02:28.654Z,11.60
2022-09-27T03:05:25.362Z,11.60
2022-09-27T03:07:58.963Z,11.60
2022-09-27T03:10:32.869Z,11.60
2022-09-27T03:13:06.541Z,11.60
2022-09-27T03:15:40.130Z,11.60
2022-09-27T03:18:13.528Z,11.60
2022-09-27T03:21:23.360Z,11.60
2022-09-27T03:23:56.699Z,11.60
2022-09-27T03:26:30.562Z,11.60
2022-09-27T03:29:05.491Z,11.60
2022-09-27T03:31:39.907Z,11.60
2022-09-27T03:34:37.515Z,11.60
2022-09-27T03:37:12.497Z,11.60
2022-09-27T03:39:45.908Z,11.60
2022-09-27T03:42:19.445Z,11.60
2022-09-27T03:44:57.213Z,11.60
2022-09-27T03:47:30.755Z,11.60
2022-09-27T03:50:04.229Z,11.60
2022-09-27T03:52:39.421Z,11.60
2022-09-27T03:55:13.238Z,11.60
2022-09-27T03:57:47.542Z,11.60
2022-09-27T04:00:23.437Z,11.60
2022-09-27T04:02:57.013Z,11.60
2022-09-27T04:05:30.450Z,11.50
2022-09-27T04:08:11.114Z,11.50
2022-09-27T04:10:45.278Z,11.50
2022-09-27T04:13:18.907Z,11.50
2022-09-27T04:15:59.345Z,11.40
2022-09-27T04:18:58.605Z,11.40
2022-09-27T04:22:07.261Z,11.40
2022-09-27T04:24:42.164Z,11.40
2022-09-27T04:27:27.849Z,11.40
2022-09-27T04:30:01.436Z,11.40
2022-09-27T04:33:00.206Z,11.40
2022-09-27T04:36:09.631Z,11.40
2022-09-27T04:38:46.406Z,11.30
2022-09-27T04:41:21.807Z,11.30
2022-09-27T04:43:59.214Z,11.30
2022-09-27T04:46:34.306Z,11.30
2022-09-27T04:49:08.499Z,11.30
2022-09-27T04:51:43.196Z,11.20
2022-09-27T04:54:16.521Z,11.20
2022-09-27T04:57:03.142Z,11.20
2022-09-27T04:59:36.498Z,11.20
2022-09-27T05:02:09.921Z,11.30
2022-09-27T05:05:15.323Z,11.30
2022-09-27T05:07:51.108Z,11.30
2022-09-27T05:10:35.788Z,11.30
2022-09-27T05:13:10.591Z,11.30
2022-09-27T05:15:44.060Z,11.30
2022-09-27T05:18:37.598Z,11.30
2022-09-27T05:21:29.663Z,11.30
2022-09-27T05:24:03.315Z,11.30
2022-09-27T05:26:37.553Z,11.30
2022-09-27T05:29:12.640Z,11.30
2022-09-27T05:31:49.677Z,11.30
2022-09-27T05:34:23.471Z,11.30
2022-09-27T05:37:06.098Z,11.30
2022-09-27T05:39:44.346Z,11.30
2022-09-27T05:42:19.968Z,11.30
2022-09-27T05:44:54.795Z,11.30
2022-09-27T05:47:28.191Z,11.30
2022-09-27T05:50:01.587Z,11.30
2022-09-27T05:52:35.020Z,11.30
2022-09-27T05:55:08.832Z,11.30
2022-09-27T05:57:42.218Z,11.30
2022-09-27T06:00:17.977Z,11.30
2022-09-27T06:02:54.669Z,11.30
2022-09-27T06:05:51.087Z,11.30
2022-09-27T06:08:41.668Z,11.30
2022-09-27T06:11:18.865Z,11.30
2022-09-27T06:13:53.584Z,11.30
2022-09-27T06:16:28.532Z,11.30
2022-09-27T06:19:02.092Z,11.30
2022-09-27T06:21:36.016Z,11.30
2022-09-27T06:24:09.868Z,11.30
2022-09-27T06:26:43.238Z,11.30
2022-09-27T06:29:35.768Z,11.40
2022-09-27T06:32:13.415Z,11.40
2022-09-27T06:35:16.371Z,11.40
2022-09-27T06:37:49.720Z,11.50
2022-09-27T06:40:24.874Z,11.40
2022-09-27T06:43:17.046Z,11.50
2022-09-27T06:46:13.310Z,11.50
2022-09-27T06:49:00.347Z,11.50
2022-09-27T06:51:33.732Z,11.60
2022-09-27T06:54:07.145Z,11.70
2022-09-27T06:56:40.516Z,11.70
2022-09-27T06:59:31.149Z,11.80
2022-09-27T07:02:23.215Z,11.80
2022-09-27T07:05:16.632Z,11.90
2022-09-27T07:08:05.520Z,11.90
2022-09-27T07:10:41.003Z,11.90
2022-09-27T07:13:14.397Z,12.00
2022-09-27T07:15:48.101Z,12.00
2022-09-27T07:18:22.046Z,12.00
2022-09-27T07:21:00.253Z,12.00
2022-09-27T07:23:33.996Z,12.00
2022-09-27T07:26:10.469Z,12.10
2022-09-27T07:28:45.059Z,12.10
2022-09-27T07:31:22.722Z,12.10
2022-09-27T07:33:56.097Z,12.10
2022-09-27T07:36:31.331Z,12.20
2022-09-27T07:39:05.196Z,12.20
2022-09-27T07:41:40.516Z,12.20
2022-09-27T07:44:13.876Z,12.20
2022-09-27T07:46:59.444Z,12.30
2022-09-27T07:49:53.058Z,12.30
2022-09-27T07:52:57.047Z,12.30
2022-09-27T07:55:59.659Z,12.30
2022-09-27T07:58:35.730Z,12.40
2022-09-27T08:01:12.888Z,12.40
2022-09-27T08:03:46.403Z,12.40
2022-09-27T08:06:20.727Z,12.50
2022-09-27T08:08:56.172Z,12.50
2022-09-27T08:11:29.818Z,12.60
2022-09-27T08:14:06.427Z,12.70
2022-09-27T08:16:41.486Z,12.70
2022-09-27T08:19:22.890Z,12.80
2022-09-27T08:22:29.399Z,12.90
2022-09-27T08:25:09.802Z,13.00
2022-09-27T08:27:46.069Z,13.10
2022-09-27T08:30:39.454Z,13.20
2022-09-27T08:33:14.020Z,13.30
2022-09-27T08:35:47.680Z,13.40
2022-09-27T08:38:22.816Z,13.50
2022-09-27T08:40:59.005Z,13.60
2022-09-27T08:43:38.007Z,13.70
2022-09-27T08:46:16.994Z,13.80
2022-09-27T08:48:55.919Z,13.80
2022-09-27T08:51:31.404Z,14.00
2022-09-27T08:54:08.092Z,14.10
2022-09-27T08:56:43.545Z,14.30
2022-09-27T08:59:22.085Z,14.40
2022-09-27T09:01:56.065Z,14.80
2022-09-27T09:04:41.414Z,15.00
2022-09-27T09:07:20.763Z,15.30
2022-09-27T09:09:58.453Z,15.70
2022-09-27T09:12:48.232Z,16.00
2022-09-27T09:15:29.950Z,16.30
2022-09-27T09:18:26.146Z,16.60
2022-09-27T09:21:20.228Z,16.80
2022-09-27T09:24:03.888Z,17.20
2022-09-27T09:26:40.848Z,17.40
2022-09-27T09:29:32.030Z,17.50
2022-09-27T09:32:09.663Z,17.70
2022-09-27T09:34:44.493Z,17.90
2022-09-27T09:37:21.334Z,18.20
2022-09-27T09:39:56.707Z,18.30
2022-09-27T09:42:37.012Z,18.30
2022-09-27T09:45:16.744Z,18.50
2022-09-27T09:47:54.728Z,18.80
2022-09-27T09:50:29.810Z,18.90
2022-09-27T09:53:06.986Z,19.10
2022-09-27T09:55:42.361Z,19.10
2022-09-27T09:58:21.885Z,19.10
2022-09-27T10:01:00.797Z,19.30
2022-09-27T10:03:36.258Z,19.40
2022-09-27T10:06:10.630Z,19.40
2022-09-27T10:08:44.122Z,19.40
2022-09-27T10:11:34.043Z,19.30
2022-09-27T10:14:16.551Z,19.30
2022-09-27T10:16:51.916Z,19.20
2022-09-27T10:19:30.386Z,19.20
2022-09-27T10:22:11.696Z,19.10
2022-09-27T10:24:54.717Z,19.30
2022-09-27T10:27:53.181Z,19.60
2022-09-27T10:30:31.606Z,19.70
2022-09-27T10:33:09.002Z,19.90
2022-09-27T10:35:51.631Z,20.10
2022-09-27T10:38:52.678Z,20.20
2022-09-27T10:41:35.563Z,20.20
2022-09-27T10:44:25.293Z,20.20
2022-09-27T10:47:08.559Z,20.40
2022-09-27T10:50:04.339Z,20.50
2022-09-27T10:53:13.253Z,20.60
2022-09-27T10:55:48.987Z,20.70
2022-09-27T10:58:27.029Z,20.80
2022-09-27T11:01:02.536Z,20.80
2022-09-27T11:03:47.154Z,20.90
2022-09-27T11:06:27.845Z,20.90
2022-09-27T11:09:18.793Z,21.10
2022-09-27T11:12:07.007Z,21.10
2022-09-27T11:14:41.534Z,20.80
2022-09-27T11:17:18.955Z,20.90
2022-09-27T11:20:07.603Z,20.90
2022-09-27T11:22:53.434Z,20.90
2022-09-27T11:25:38.489Z,21.10
2022-09-27T11:28:15.777Z,21.20
2022-09-27T11:30:52.224Z,21.10
2022-09-27T11:33:54.219Z,20.90
2022-09-27T11:36:36.004Z,20.90
2022-09-27T11:39:13.434Z,21.00
2022-09-27T11:41:56.054Z,21.30
2022-09-27T11:44:42.165Z,21.20
2022-09-27T11:47:18.488Z,21.10
2022-09-27T11:50:07.380Z,20.80
2022-09-27T11:52:46.654Z,20.70
2022-09-27T11:55:24.964Z,20.60
2022-09-27T11:58:05.771Z,20.50
2022-09-27T12:00:46.414Z,20.60
2022-09-27T12:03:30.885Z,20.60
2022-09-27T12:06:08.567Z,20.60
2022-09-27T12:08:50.454Z,20.50
2022-09-27T12:11:25.042Z,20.20
2022-09-27T12:14:01.217Z,20.20
2022-09-27T12:16:35.660Z,20.20
2022-09-27T12:19:13.535Z,20.00
2022-09-27T12:21:59.958Z,19.90
2022-09-27T12:24:34.168Z,19.60
2022-09-27T12:27:18.533Z,19.50
2022-09-27T12:29:56.051Z,19.40
2022-09-27T12:32:33.072Z,19.30
2022-09-27T12:35:10.641Z,19.30
2022-09-27T12:37:45.864Z,19.20
2022-09-27T12:40:21.130Z,19.10
2022-09-27T12:42:59.317Z,18.90
2022-09-27T12:45:52.308Z,18.70
2022-09-27T12:48:30.226Z,18.70
2022-09-27T12:51:08.140Z,18.70
2022-09-27T12:53:49.121Z,18.60
2022-09-27T12:56:31.837Z,18.50
2022-09-27T12:59:29.116Z,18.50
2022-09-27T13:02:17.466Z,18.60
2022-09-27T13:05:21.154Z,18.50
2022-09-27T13:08:15.178Z,18.60
2022-09-27T13:10:56.910Z,18.60
2022-09-27T13:13:36.712Z,18.50
2022-09-27T13:16:12.374Z,18.40
2022-09-27T13:18:53.582Z,18.30
2022-09-27T13:21:46.154Z,18.30
2022-09-27T13:24:43.767Z,18.30
2022-09-27T13:27:43.921Z,18.10
2022-09-27T13:30:50.567Z,18.10
2022-09-27T13:33:34.893Z,18.00
2022-09-27T13:36:19.333Z,17.90
2022-09-27T13:39:01.339Z,17.80
2022-09-27T13:41:53.586Z,17.80
2022-09-27T13:44:32.398Z,17.70
2022-09-27T13:47:14.554Z,17.60
2022-09-27T13:49:49.455Z,17.40
2022-09-27T13:52:30.164Z,17.40
2022-09-27T13:55:33.217Z,17.30
2022-09-27T13:58:12.568Z,17.10
2022-09-27T14:00:48.413Z,17.10
2022-09-27T14:03:23.647Z,17.00
2022-09-27T14:05:59.539Z,17.00
2022-09-27T14:08:36.274Z,16.90
2022-09-27T14:11:13.842Z,16.80
2022-09-27T14:13:49.382Z,16.80
2022-09-27T14:16:26.823Z,16.80
2022-09-27T14:19:00.736Z,16.80
2022-09-27T14:21:48.957Z,16.80
2022-09-27T14:24:24.999Z,16.80
2022-09-27T14:27:07.044Z,16.80
2022-09-27T14:29:41.953Z,16.80
2022-09-27T14:32:18.139Z,16.80
2022-09-27T14:35:30.827Z,16.80
2022-09-27T14:38:26.317Z,16.80
2022-09-27T14:41:01.630Z,16.70
2022-09-27T14:43:35.961Z,16.70
2022-09-27T14:46:09.212Z,16.60
2022-09-27T14:48:42.663Z,16.50
2022-09-27T14:51:20.740Z,16.50
2022-09-27T14:53:57.160Z,16.40
2022-09-27T14:56:33.174Z,16.40
2022-09-27T14:59:09.367Z,16.30
2022-09-27T15:01:50.384Z,16.20
2022-09-27T15:04:24.432Z,16.20
2022-09-27T15:06:58.109Z,16.20
2022-09-27T15:09:33.313Z,16.10
2022-09-27T15:12:08.705Z,16.10
2022-09-27T15:14:42.737Z,16.10
2022-09-27T15:17:18.419Z,16.10
2022-09-27T15:19:58.329Z,16.10
2022-09-27T15:22:36.421Z,16.00
2022-09-27T15:25:19.590Z,15.90
2022-09-27T15:27:56.041Z,15.80
2022-09-27T15:30:30.390Z,15.70
2022-09-27T15:33:04.373Z,15.60
2022-09-27T15:35:37.677Z,15.50
2022-09-27T15:38:17.786Z,15.50
2022-09-27T15:41:02.082Z,15.40
2022-09-27T15:43:39.439Z,15.30
2022-09-27T15:46:27.564Z,15.20
2022-09-27T15:49:23.858Z,15.10
2022-09-27T15:51:57.993Z,15.00
2022-09-27T15:54:33.340Z,14.90
2022-09-27T15:57:06.957Z,14.90
2022-09-27T15:59:41.541Z,14.90
2022-09-27T16:02:17.630Z,14.90
2022-09-27T16:04:51.036Z,14.80
2022-09-27T16:07:24.285Z,14.80
2022-09-27T16:09:57.520Z,14.70
2022-09-27T16:12:31.325Z,14.70
2022-09-27T16:15:06.561Z,14.60
2022-09-27T16:17:42.536Z,14.60
2022-09-27T16:20:17.529Z,14.60
2022-09-27T16:22:50.958Z,14.50
2022-09-27T16:25:24.505Z,14.40
2022-09-27T16:27:58.496Z,14.40
2022-09-27T16:30:33.319Z,14.40
2022-09-27T16:33:06.527Z,14.30
2022-09-27T16:35:40.887Z,14.30
2022-09-27T16:38:14.139Z,14.20
2022-09-27T16:40:47.425Z,14.20
2022-09-27T16:43:21.785Z,14.10
2022-09-27T16:45:58.887Z,14.10
2022-09-27T16:48:32.247Z,14.00
2022-09-27T16:51:23.889Z,14.00
2022-09-27T16:53:57.191Z,13.90
2022-09-27T16:56:32.196Z,13.90
2022-09-27T16:59:06.639Z,13.80
2022-09-27T17:01:41.381Z,13.80
2022-09-27T17:04:15.486Z,13.80
2022-09-27T17:06:48.884Z,13.70
2022-09-27T17:09:22.485Z,13.70
2022-09-27T17:11:56.466Z,13.60
2022-09-27T17:14:29.674Z,13.70
2022-09-27T17:17:04.329Z,13.60
2022-09-27T17:19:39.224Z,13.60
2022-09-27T17:22:12.505Z,13.60
2022-09-27T17:24:45.718Z,13.50
2022-09-27T17:27:22.864Z,13.50
2022-09-27T17:29:58.515Z,13.50
2022-09-27T17:32:33.515Z,13.50
2022-09-27T17:35:09.879Z,13.50
2022-09-27T17:37:43.186Z,13.40
2022-09-27T17:40:16.920Z,13.40
2022-09-27T17:42:51.122Z,13.40
2022-09-27T17:45:24.560Z,13.40
2022-09-27T17:48:16.860Z,13.40
2022-09-27T17:50:50.745Z,13.30
2022-09-27T17:53:24.556Z,13.30
2022-09-27T17:56:01.723Z,13.30
2022-09-27T17:58:34.968Z,13.30
2022-09-27T18:01:08.286Z,13.30
2022-09-27T18:03:43.255Z,13.30
2022-09-27T18:06:17.401Z,13.30
2022-09-27T18:08:50.690Z,13.30
2022-09-27T18:11:27.690Z,13.20
2022-09-27T18:14:01.642Z,13.20
2022-09-27T18:16:37.632Z,13.20
2022-09-27T18:19:14.143Z,13.20
2022-09-27T18:21:47.417Z,13.20
2022-09-27T18:24:20.764Z,13.20
2022-09-27T18:26:55.846Z,13.20
2022-09-27T18:29:29.905Z,13.20
2022-09-27T18:34:55.476Z,13.20
2022-09-27T18:37:30.789Z,13.20
2022-09-27T18:40:04.196Z,13.20
2022-09-27T18:42:37.527Z,13.20
2022-09-27T18:45:10.999Z,13.20
2022-09-27T18:47:44.232Z,13.10
2022-09-27T18:50:18.966Z,13.10
2022-09-27T18:52:53.364Z,13.10
2022-09-27T18:55:26.643Z,13.10
2022-09-27T18:57:59.894Z,13.10
2022-09-27T19:00:33.220Z,13.10
2022-09-27T19:03:06.811Z,13.10
2022-09-27T19:05:41.472Z,13.10
2022-09-27T19:08:14.717Z,13.10
2022-09-27T19:10:50.351Z,13.10
2022-09-27T19:13:28.287Z,13.10
2022-09-27T19:16:03.738Z,13.00
2022-09-27T19:18:37.373Z,13.00
2022-09-27T19:21:13.199Z,13.00
2022-09-27T19:23:46.818Z,13.00
2022-09-27T19:26:21.119Z,13.00
2022-09-27T19:28:54.706Z,13.00
2022-09-27T19:31:29.639Z,13.00
2022-09-27T19:34:03.065Z,12.90
2022-09-27T19:36:37.862Z,12.90
2022-09-27T19:39:11.191Z,12.90
2022-09-27T19:41:45.784Z,12.90
2022-09-27T19:44:19.115Z,12.90
2022-09-27T19:46:52.484Z,12.90
2022-09-27T19:49:26.816Z,12.90
2022-09-27T19:52:01.782Z,13.00
2022-09-27T19:54:35.018Z,13.00
2022-09-27T19:57:08.333Z,13.00
2022-09-27T19:59:42.347Z,13.00
2022-09-27T20:02:15.687Z,13.00
2022-09-27T20:04:49.006Z,13.00
2022-09-27T20:07:23.640Z,12.90
2022-09-27T20:09:56.932Z,12.90
2022-09-27T20:12:30.144Z,12.90
2022-09-27T20:15:03.432Z,12.90
2022-09-27T20:17:36.709Z,12.90
2022-09-27T20:20:10.411Z,12.90
2022-09-27T20:22:45.010Z,12.90
2022-09-27T20:25:18.386Z,12.90
2022-09-27T20:27:52.041Z,12.80
2022-09-27T20:30:26.083Z,12.80
2022-09-27T20:33:16.725Z,12.80
2022-09-27T20:35:50.996Z,12.70
2022-09-27T20:38:25.787Z,12.70
2022-09-27T20:40:59.757Z,12.60
2022-09-27T20:43:33.020Z,12.50
2022-09-27T20:46:07.337Z,12.40
2022-09-27T20:48:41.078Z,12.40
2022-09-27T20:51:14.785Z,12.30
2022-09-27T20:53:51.495Z,12.30
2022-09-27T20:56:26.697Z,12.20
2022-09-27T20:59:01.361Z,12.20
2022-09-27T21:01:34.628Z,12.10
2022-09-27T21:04:08.123Z,12.20
2022-09-27T21:06:41.850Z,12.10
2022-09-27T21:09:19.085Z,12.00
2022-09-27T21:11:53.904Z,12.00
2022-09-27T21:14:27.098Z,11.90
2022-09-27T21:17:02.184Z,11.90
2022-09-27T21:19:35.896Z,11.90
2022-09-27T21:22:09.164Z,11.80
2022-09-27T21:24:43.795Z,11.80
2022-09-27T21:27:17.028Z,11.80
2022-09-27T21:29:50.325Z,11.80
2022-09-27T21:32:23.631Z,11.80
2022-09-27T21:34:57.413Z,11.80
2022-09-27T21:37:30.656Z,11.80
2022-09-27T21:40:05.776Z,11.80
2022-09-27T21:42:39.092Z,11.80
2022-09-27T21:45:12.355Z,11.70
2022-09-27T21:47:45.577Z,11.70
2022-09-27T21:50:18.848Z,11.60
2022-09-27T21:52:57.351Z,11.70
2022-09-27T21:55:32.732Z,11.60
2022-09-27T21:58:05.963Z,11.70
2022-09-27T22:00:39.223Z,11.60
2022-09-27T22:03:12.490Z,11.70
2022-09-27T22:05:45.985Z,11.60
2022-09-27T22:08:19.698Z,11.60
2022-09-27T22:10:54.364Z,11.60
2022-09-27T22:13:27.980Z,11.60
2022-09-27T22:16:03.578Z,11.60
2022-09-27T22:18:37.597Z,11.60
2022-09-27T22:21:11.616Z,11.60
2022-09-27T22:23:45.455Z,11.60
2022-09-27T22:26:20.971Z,11.60
2022-09-27T22:28:54.579Z,11.60
2022-09-27T22:31:28.508Z,11.60
2022-09-27T22:34:03.534Z,11.60
2022-09-27T22:36:36.813Z,11.60
2022-09-27T22:39:10.273Z,11.50
2022-09-27T22:41:45.282Z,11.60
2022-09-27T22:44:18.518Z,11.60
2022-09-27T22:46:51.780Z,11.60
2022-09-27T22:49:25.192Z,11.50
2022-09-27T22:51:58.387Z,11.50
2022-09-27T22:54:31.639Z,11.50
2022-09-27T22:57:06.374Z,11.60
2022-09-27T22:59:39.639Z,11.50
2022-09-27T23:02:12.891Z,11.50
2022-09-27T23:04:46.223Z,11.50
2022-09-27T23:07:19.427Z,11.50
2022-09-27T23:09:52.715Z,11.40
2022-09-27T23:12:27.420Z,11.40
2022-09-27T23:15:01.421Z,11.40
2022-09-27T23:17:35.973Z,11.50
2022-09-27T23:20:09.582Z,11.40
2022-09-27T23:22:43.643Z,11.40
2022-09-27T23:25:17.206Z,11.40
2022-09-27T23:27:53.449Z,11.40
2022-09-27T23:30:29.205Z,11.40
2022-09-27T23:33:02.613Z,11.40
2022-09-27T23:35:35.929Z,11.40
2022-09-27T23:38:09.292Z,11.40
2022-09-27T23:40:42.688Z,11.30
2022-09-27T23:43:17.387Z,11.30
2022-09-27T23:45:50.983Z,11.30
2022-09-27T23:48:24.642Z,11.30
2022-09-27T23:50:58.105Z,11.30
2022-09-27T23:53:31.435Z,11.30
2022-09-27T23:56:06.635Z,11.30
2022-09-27T23:58:41.855Z,11.30
